createdAt,value
2023-04-20T00:03:33.779Z,8.88
2023-04-20T00:07:37.299Z,8.87
2023-04-20T00:11:40.996Z,8.88
2023-04-20T00:15:44.265Z,8.87
2023-04-20T00:19:49.337Z,8.88
2023-04-20T00:23:52.727Z,8.89
2023-04-20T00:27:56.640Z,8.90
2023-04-20T00:32:00.306Z,8.92
2023-04-20T00:36:07.186Z,8.93
2023-04-20T00:40:10.935Z,8.94
2023-04-20T00:44:16.196Z,8.96
2023-04-20T00:48:19.758Z,8.93
2023-04-20T00:52:25.168Z,8.97
2023-04-20T00:56:28.918Z,8.97
2023-04-20T01:00:33.183Z,8.96
2023-04-20T01:04:36.727Z,8.95
2023-04-20T01:08:49.496Z,8.97
2023-04-20T01:12:52.343Z,9.00
2023-04-20T01:16:56.536Z,8.98
2023-04-20T01:20:59.691Z,8.95
2023-04-20T01:25:05.351Z,8.95
2023-04-20T01:29:08.818Z,8.94
2023-04-20T01:33:12.465Z,8.93
2023-04-20T01:37:16.129Z,8.93
2023-04-20T01:41:21.799Z,8.93
2023-04-20T01:45:24.995Z,8.91
2023-04-20T01:49:29.230Z,8.93
2023-04-20T01:53:32.573Z,8.91
2023-04-20T01:57:38.234Z,8.93
2023-04-20T02:01:41.459Z,8.92
2023-04-20T02:05:45.472Z,8.92
2023-04-20T02:09:48.474Z,8.91
2023-04-20T02:13:53.939Z,8.91
2023-04-20T02:17:57.607Z,8.90
2023-04-20T02:22:02.164Z,8.89
2023-04-20T02:26:05.736Z,8.91
2023-04-20T02:30:12.573Z,8.92
2023-04-20T02:34:16.259Z,8.92
2023-04-20T02:38:19.771Z,8.94
2023-04-20T02:42:23.057Z,8.96
2023-04-20T02:46:27.745Z,8.95
2023-04-20T02:50:30.939Z,8.97
2023-04-20T02:54:35.160Z,8.98
2023-04-20T02:58:38.656Z,8.98
2023-04-20T03:02:43.763Z,8.99
2023-04-20T03:06:47.341Z,8.97
2023-04-20T03:10:51.346Z,8.97
2023-04-20T03:14:54.784Z,8.94
2023-04-20T03:19:00.178Z,8.93
2023-04-20T03:23:03.135Z,8.87
2023-04-20T03:27:06.690Z,8.81
2023-04-20T03:31:10.132Z,8.73
2023-04-20T03:35:14.915Z,8.64
2023-04-20T03:39:20.364Z,8.56
2023-04-20T03:43:24.211Z,8.47
2023-04-20T03:47:27.723Z,8.38
2023-04-20T03:51:32.928Z,8.30
2023-04-20T03:55:36.512Z,8.22
2023-04-20T03:59:42.682Z,8.15
2023-04-20T04:03:46.222Z,8.11
2023-04-20T04:07:51.180Z,8.08
2023-04-20T04:11:54.262Z,8.06
2023-04-20T04:15:57.606Z,8.04
2023-04-20T04:20:00.933Z,8.04
2023-04-20T04:24:06.493Z,8.06
2023-04-20T04:28:09.518Z,8.06
2023-04-20T04:32:14.376Z,8.08
2023-04-20T04:36:17.774Z,8.09
2023-04-20T04:40:23.190Z,8.13
2023-04-20T04:44:29.183Z,8.19
2023-04-20T04:48:32.418Z,8.23
2023-04-20T04:52:35.546Z,8.29
2023-04-20T04:56:40.691Z,8.34
2023-04-20T05:00:43.918Z,8.44
2023-04-20T05:04:47.891Z,8.51
2023-04-20T05:08:51.412Z,8.59
2023-04-20T05:12:58.883Z,8.68
2023-04-20T05:17:03.483Z,8.74
2023-04-20T05:21:07.186Z,8.82
2023-04-20T05:25:13.802Z,8.91
2023-04-20T05:29:19.418Z,9.00
2023-04-20T05:33:22.705Z,9.08
2023-04-20T05:37:26.185Z,9.13
2023-04-20T05:41:29.281Z,9.20
2023-04-20T05:45:36.408Z,9.25
2023-04-20T05:49:40.675Z,9.30
2023-04-20T05:53:44.412Z,9.34
2023-04-20T05:57:48.116Z,9.41
2023-04-20T06:01:53.313Z,9.49
2023-04-20T06:05:56.553Z,9.55
2023-04-20T06:10:01.267Z,9.60
2023-04-20T06:14:04.487Z,9.63
2023-04-20T06:18:09.674Z,9.66
2023-04-20T06:22:13.237Z,9.67
2023-04-20T06:26:17.005Z,9.66
2023-04-20T06:30:20.079Z,9.66
2023-04-20T06:34:25.605Z,9.69
2023-04-20T06:38:28.939Z,9.69
2023-04-20T06:42:32.496Z,9.73
2023-04-20T06:46:36.011Z,9.79
2023-04-20T06:50:40.817Z,9.84
2023-04-20T06:54:43.886Z,9.88
2023-04-20T06:58:47.382Z,9.90
2023-04-20T07:02:51.793Z,9.93
2023-04-20T07:06:56.683Z,10.02
2023-04-20T07:11:00.097Z,10.04
2023-04-20T07:15:06.044Z,10.06
2023-04-20T07:19:09.795Z,10.06
2023-04-20T07:23:15.465Z,10.06
2023-04-20T07:27:18.626Z,10.04
2023-04-20T07:31:22.719Z,10.06
2023-04-20T07:35:25.986Z,10.03
2023-04-20T07:39:31.356Z,10.09
2023-04-20T07:43:34.606Z,10.11
2023-04-20T07:47:38.956Z,10.16
2023-04-20T07:51:42.238Z,10.22
2023-04-20T07:55:49.140Z,10.29
2023-04-20T07:59:53.967Z,10.31
2023-04-20T08:03:57.706Z,10.41
2023-04-20T08:08:01.398Z,10.47
2023-04-20T08:12:07.150Z,10.55
2023-04-20T08:16:10.688Z,10.65
2023-04-20T08:20:15.327Z,10.76
2023-04-20T08:24:21.262Z,10.79
2023-04-20T08:28:33.484Z,10.88
2023-04-20T08:32:38.107Z,10.88
2023-04-20T08:36:43.002Z,11.09
2023-04-20T08:40:47.062Z,11.21
2023-04-20T08:44:53.353Z,11.36
2023-04-20T08:48:57.493Z,11.48
2023-04-20T08:53:01.810Z,11.60
2023-04-20T08:57:06.020Z,11.74
2023-04-20T09:01:15.553Z,11.91
2023-04-20T09:05:28.960Z,12.04
2023-04-20T09:09:32.542Z,12.19
2023-04-20T09:13:35.877Z,12.47
2023-04-20T09:17:42.399Z,12.77
2023-04-20T09:21:50.784Z,13.10
2023-04-20T09:25:54.504Z,13.39
2023-04-20T09:30:01.600Z,13.63
2023-04-20T09:34:06.983Z,13.84
2023-04-20T09:38:11.043Z,14.13
2023-04-20T09:42:16.392Z,14.42
2023-04-20T09:46:21.992Z,14.70
2023-04-20T09:50:38.316Z,15.03
2023-04-20T09:54:50.081Z,15.26
2023-04-20T09:58:56.700Z,15.50
2023-04-20T10:03:00.170Z,15.71
2023-04-20T10:07:06.608Z,15.84
2023-04-20T10:11:09.731Z,15.90
2023-04-20T10:15:13.081Z,15.95
2023-04-20T10:19:19.409Z,16.05
2023-04-20T10:23:24.570Z,16.08
2023-04-20T10:27:32.688Z,16.07
2023-04-20T10:31:40.419Z,16.22
2023-04-20T10:35:48.521Z,16.28
2023-04-20T10:39:53.256Z,16.51
2023-04-20T10:43:58.857Z,16.81
2023-04-20T10:48:09.922Z,17.19
2023-04-20T10:52:13.143Z,17.47
2023-04-20T10:56:18.091Z,17.58
2023-04-20T11:00:23.197Z,17.71
2023-04-20T11:04:33.105Z,17.86
2023-04-20T11:08:40.601Z,17.87
2023-04-20T11:12:45.640Z,17.95
2023-04-20T11:16:54.095Z,18.06
2023-04-20T11:20:59.116Z,18.19
2023-04-20T11:25:06.949Z,18.35
2023-04-20T11:29:12.845Z,18.46
2023-04-20T11:33:16.776Z,18.56
2023-04-20T11:37:20.102Z,18.66
2023-04-20T11:41:23.918Z,18.82
2023-04-20T11:45:29.316Z,18.91
2023-04-20T11:49:34.351Z,18.95
2023-04-20T11:53:38.038Z,18.86
2023-04-20T11:57:41.732Z,18.78
2023-04-20T12:01:46.927Z,18.71
2023-04-20T12:05:52.148Z,18.64
2023-04-20T12:09:55.319Z,18.67
2023-04-20T12:13:59.402Z,18.69
2023-04-20T12:18:11.513Z,18.80
2023-04-20T12:22:14.939Z,18.99
2023-04-20T12:26:18.316Z,19.20
2023-04-20T12:30:22.401Z,19.51
2023-04-20T12:34:30.757Z,19.74
2023-04-20T12:38:34.590Z,19.90
2023-04-20T12:42:37.861Z,19.95
2023-04-20T12:46:43.172Z,20.05
2023-04-20T12:50:47.751Z,20.15
2023-04-20T12:54:52.900Z,20.30
2023-04-20T12:58:55.793Z,20.40
2023-04-20T13:02:59.829Z,20.50
2023-04-20T13:07:04.754Z,20.49
2023-04-20T13:11:08.427Z,20.48
2023-04-20T13:15:13.992Z,20.42
2023-04-20T13:19:17.587Z,20.40
2023-04-20T13:23:23.503Z,20.44
2023-04-20T13:27:27.431Z,20.53
2023-04-20T13:31:31.842Z,20.71
2023-04-20T13:35:36.209Z,20.83
2023-04-20T13:39:41.599Z,20.97
2023-04-20T13:43:44.944Z,21.12
2023-04-20T13:47:49.548Z,21.26
2023-04-20T13:51:53.205Z,21.36
2023-04-20T13:55:58.869Z,21.43
2023-04-20T14:00:02.820Z,21.40
2023-04-20T14:04:06.425Z,21.44
2023-04-20T14:08:10.104Z,21.48
2023-04-20T14:12:15.275Z,21.54
2023-04-20T14:16:18.928Z,21.62
2023-04-20T14:20:22.170Z,21.68
2023-04-20T14:24:26.280Z,21.80
2023-04-20T14:28:31.844Z,21.87
2023-04-20T14:32:37.009Z,21.92
2023-04-20T14:36:41.120Z,22.04
2023-04-20T14:40:44.835Z,22.15
2023-04-20T14:44:49.746Z,22.09
2023-04-20T14:48:53.367Z,22.08
2023-04-20T14:52:56.782Z,21.98
2023-04-20T14:56:59.986Z,21.90
2023-04-20T15:01:04.526Z,21.85
2023-04-20T15:05:10.519Z,21.79
2023-04-20T15:09:15.180Z,21.80
2023-04-20T15:13:18.871Z,21.76
2023-04-20T15:17:23.687Z,21.80
2023-04-20T15:21:27.178Z,21.79
2023-04-20T15:25:30.206Z,21.74
2023-04-20T15:29:35.952Z,21.63
2023-04-20T15:33:43.355Z,21.46
2023-04-20T15:37:47.842Z,21.31
2023-04-20T15:41:51.013Z,21.19
2023-04-20T15:45:54.459Z,21.09
2023-04-20T15:50:01.755Z,21.01
2023-04-20T15:54:05.249Z,20.91
2023-04-20T15:58:10.129Z,20.79
2023-04-20T16:02:13.714Z,20.71
2023-04-20T16:06:18.478Z,20.64
2023-04-20T16:10:24.386Z,20.63
2023-04-20T16:14:28.481Z,20.60
2023-04-20T16:18:35.946Z,20.56
2023-04-20T16:22:44.622Z,20.60
2023-04-20T16:26:51.827Z,20.54
2023-04-20T16:30:58.198Z,20.44
2023-04-20T16:35:02.051Z,20.10
2023-04-20T16:39:10.348Z,20.03
2023-04-20T16:43:13.287Z,19.74
2023-04-20T16:47:16.655Z,19.68
2023-04-20T16:51:22.475Z,19.46
2023-04-20T17:00:38.468Z,19.00
2023-04-20T17:04:41.667Z,18.80
2023-04-20T17:08:45.117Z,18.63
2023-04-20T17:12:48.434Z,18.42
2023-04-20T17:16:54.408Z,18.32
2023-04-20T17:20:59.814Z,18.13
2023-04-20T17:25:06.529Z,18.00
2023-04-20T17:29:10.665Z,17.88
2023-04-20T17:33:15.144Z,17.74
2023-04-20T17:37:20.665Z,17.60
2023-04-20T17:41:23.652Z,17.45
2023-04-20T17:45:26.881Z,17.32
2023-04-20T17:49:32.545Z,17.16
2023-04-20T17:53:36.591Z,17.03
2023-04-20T17:57:40.391Z,16.93
2023-04-20T18:01:43.672Z,16.81
2023-04-20T18:05:48.502Z,16.69
2023-04-20T18:09:51.489Z,16.59
2023-04-20T18:13:54.886Z,16.50
2023-04-20T18:17:57.979Z,16.41
2023-04-20T18:22:02.637Z,16.33
2023-04-20T18:26:07.985Z,16.24
2023-04-20T18:30:11.797Z,16.14
2023-04-20T18:34:17.369Z,16.05
2023-04-20T18:38:22.215Z,15.97
2023-04-20T18:42:27.034Z,15.88
2023-04-20T18:46:30.358Z,15.76
2023-04-20T18:50:33.564Z,15.63
2023-04-20T18:54:38.973Z,15.51
2023-04-20T18:58:42.197Z,15.35
2023-04-20T19:02:45.773Z,15.25
2023-04-20T19:06:49.110Z,15.15
2023-04-20T19:10:56.976Z,15.09
2023-04-20T19:15:00.287Z,15.01
2023-04-20T19:19:05.027Z,14.99
2023-04-20T19:23:10.932Z,14.93
2023-04-20T19:27:20.810Z,14.89
2023-04-20T19:31:23.959Z,14.82
2023-04-20T19:35:27.037Z,14.75
2023-04-20T19:39:30.482Z,14.66
2023-04-20T19:43:35.433Z,14.58
2023-04-20T19:47:39.149Z,14.49
2023-04-20T19:51:42.504Z,14.42
2023-04-20T19:55:48.049Z,14.36
2023-04-20T19:59:52.987Z,14.31
2023-04-20T20:03:56.604Z,14.24
2023-04-20T20:07:59.928Z,14.16
2023-04-20T20:12:05.178Z,14.12
2023-04-20T20:16:11.138Z,14.07
2023-04-20T20:20:15.740Z,14.02
2023-04-20T20:24:19.032Z,13.99
2023-04-20T20:28:22.820Z,13.93
2023-04-20T20:32:27.776Z,13.88
2023-04-20T20:36:32.426Z,13.79
2023-04-20T20:40:35.834Z,13.71
2023-04-20T20:44:40.410Z,13.64
2023-04-20T20:48:47.254Z,13.55
2023-04-20T20:52:51.231Z,13.44
2023-04-20T20:56:58.835Z,13.33
2023-04-20T21:01:02.731Z,13.23
2023-04-20T21:05:08.024Z,13.14
2023-04-20T21:09:11.760Z,13.07
2023-04-20T21:13:16.004Z,13.01
2023-04-20T21:17:19.252Z,12.92
2023-04-20T21:21:23.945Z,12.87
2023-04-20T21:25:27.769Z,12.78
2023-04-20T21:29:31.240Z,12.71
2023-04-20T21:33:36.261Z,12.61
2023-04-20T21:37:43.068Z,12.53
2023-04-20T21:41:46.497Z,12.45
2023-04-20T21:45:51.217Z,12.38
2023-04-20T21:49:54.519Z,12.33
2023-04-20T21:53:59.429Z,12.29
2023-04-20T21:58:02.819Z,12.27
2023-04-20T22:02:06.942Z,12.25
2023-04-20T22:06:11.187Z,12.26
2023-04-20T22:10:16.202Z,12.29
2023-04-20T22:14:19.985Z,12.31
2023-04-20T22:18:23.146Z,12.35
2023-04-20T22:22:26.250Z,12.38
2023-04-20T22:26:30.737Z,12.47
2023-04-20T22:30:34.345Z,12.54
2023-04-20T22:34:37.338Z,12.59
2023-04-20T22:38:41.196Z,12.60
2023-04-20T22:42:45.478Z,12.58
2023-04-20T22:46:51.401Z,12.60
2023-04-20T22:50:54.838Z,12.59
2023-04-20T22:54:58.302Z,12.57
2023-04-20T22:59:02.643Z,12.57
2023-04-20T23:03:06.977Z,12.56
2023-04-20T23:07:10.618Z,12.56
2023-04-20T23:11:16.819Z,12.56
2023-04-20T23:15:21.860Z,12.52
2023-04-20T23:19:26.279Z,12.48
2023-04-20T23:23:29.339Z,12.41
2023-04-20T23:27:32.755Z,12.34
2023-04-20T23:31:37.599Z,12.26
2023-04-20T23:35:41.487Z,12.18
2023-04-20T23:39:44.872Z,12.12
2023-04-20T23:43:49.937Z,12.07
2023-04-20T23:47:54.766Z,12.04
2023-04-20T23:51:58.487Z,12.02
2023-04-20T23:56:01.906Z,11.99
